ZWWW/URC METAR and TAF weather

Enter ICAO airport designator
Station Type Date Time Source
ZWWW METAR 2019/12/07 15:00 UTC NOAA

ZWWW 071500Z VRB01MPS CAVOK M03/M06 Q1035 NOSIG


Station Type Date Time Source
ZWWW Decoded METAR 2019/12/07 15:00 UTC NOAA

Urum-Qi / Diwopu, China (ZWWW) 43-54N 087-28E
Dec 07, 2019 - 10:00 AM EST / 2019.12.07 1500 UTC
Wind: Variable at 2 MPH (2 KT):0
Visibility: greater than 7 mile(s):0
Temperature: 26 F (-3 C)
Dew Point: 21 F (-6 C)
Relative Humidity: 79%
Pressure (altimeter): 30.56 in. Hg (1035 hPa)
ob: ZWWW 071500Z VRB01MPS CAVOK M03/M06 Q1035 NOSIG
cycle: 15

Station Type Date Time Source
ZWWW TAF 2019/12/07 12:03 UTC NOAA

TAF ZWWW 070903Z 0712/0812 02002MPS 6000 NSC TX01/0809Z TNM07/23Z
BECMG 0715/0716 16002MPS 2000 BR
BECMG 0802/0803 36002MPS

Example: see airport list